Time;durP1;ratioP1;P1;durP2;ratioP2;P2;SDS_P1;SDS_P2;PMS_P1;PMS_P2;Temp;Humidity;BMP_temperature;BMP_pressure;BME280_temperature;BME280_humidity;BME280_pressure;Samples;Min_cycle;Max_cycle;Signal;HPM_P1;HPM_P2
2024/01/29 00:00:53;;;;;;;;;;;;;;;3.21;68.87;102704.47;4195067;28;20031;-68
2024/01/29 00:02:55;;;;;;;;;;;;;;;3.18;69.20;102700.19;4195247;28;20019;-69
2024/01/29 00:04:56;;;;;;;;;;;;;;;3.15;69.13;102700.34;4196666;28;20342;-69
2024/01/29 00:06:58;;;;;;;;;;;;;;;3.15;69.16;102696.78;4197079;28;20020;-69
2024/01/29 00:09:01;;;;;;;;;;;;;;;3.14;68.99;102695.06;4195345;28;20003;-69
2024/01/29 00:11:03;;;;;;;;;;;;;;;3.14;69.14;102692.41;4194891;28;19925;-69
2024/01/29 00:13:05;;;;;;;;;;;;;;;3.15;69.47;102696.78;4193463;28;20015;-69
2024/01/29 00:15:07;;;;;;;;;;;;;;;3.12;69.36;102700.50;4194094;28;20457;-69
2024/01/29 00:17:09;;;;;;;;;;;;;;;3.11;69.30;102697.91;4192841;28;20011;-69
2024/01/29 00:19:11;;;;;;;;;;;;;;;3.11;69.37;102696.09;4197227;28;20378;-69
2024/01/29 00:21:13;;;;;;;;;;;;;;;3.10;69.58;102701.50;4194776;28;20015;-69
2024/01/29 00:23:15;;;;;;;;;;;;;;;3.07;69.31;102699.84;4196725;28;20020;-69
2024/01/29 00:25:19;;;;;;;;;;;;;;;3.05;69.14;102701.75;4193371;28;20020;-69
2024/01/29 00:27:20;;;;;;;;;;;;;;;3.02;69.34;102691.22;4197051;28;20024;-69
2024/01/29 00:29:22;;;;;;;;;;;;;;;3.03;69.68;102676.94;4195439;28;20035;-69
2024/01/29 00:31:24;;;;;;;;;;;;;;;3.04;69.78;102678.66;4192433;28;19925;-69
2024/01/29 00:33:25;;;;;;;;;;;;;;;3.01;69.33;102681.47;4193967;28;20011;-69
2024/01/29 00:35:27;;;;;;;;;;;;;;;2.99;69.69;102673.56;4195983;28;19928;-69
2024/01/29 00:37:29;;;;;;;;;;;;;;;3.01;69.96;102670.81;4195587;28;20028;-69
2024/01/29 00:39:31;;;;;;;;;;;;;;;3.00;69.92;102672.63;4195012;28;20023;-69
2024/01/29 00:41:34;;;;;;;;;;;;;;;2.97;69.73;102671.94;4194828;28;20046;-69
2024/01/29 00:43:36;;;;;;;;;;;;;;;2.94;69.50;102672.09;4192565;28;20387;-69
2024/01/29 00:45:38;;;;;;;;;;;;;;;2.93;69.51;102667.69;4195775;28;20031;-69
2024/01/29 00:47:40;;;;;;;;;;;;;;;2.92;69.63;102677.50;4195893;28;20055;-69
2024/01/29 00:49:42;;;;;;;;;;;;;;;2.87;69.60;102680.41;4196259;28;20019;-69
2024/01/29 00:51:44;;;;;;;;;;;;;;;2.87;69.55;102676.88;4191681;28;20390;-69
2024/01/29 00:53:47;;;;;;;;;;;;;;;2.87;69.61;102671.53;4192865;28;20477;-69
2024/01/29 00:55:49;;;;;;;;;;;;;;;2.86;69.91;102667.13;4196733;28;20019;-69
2024/01/29 00:57:51;;;;;;;;;;;;;;;2.81;69.61;102667.38;4195790;28;20369;-69
2024/01/29 00:59:55;;;;;;;;;;;;;;;2.79;69.75;102666.59;4194095;28;20429;-69
2024/01/29 01:01:57;;;;;;;;;;;;;;;2.80;69.73;102667.47;4194480;28;20020;-69
2024/01/29 01:03:59;;;;;;;;;;;;;;;2.78;69.91;102667.53;4195016;28;20018;-69
2024/01/29 01:06:01;;;;;;;;;;;;;;;2.77;69.75;102668.47;4195607;28;20022;-69
2024/01/29 01:08:03;;;;;;;;;;;;;;;2.77;69.86;102663.13;4195736;28;20043;-69
2024/01/29 01:10:06;;;;;;;;;;;;;;;2.74;69.90;102663.28;4195553;28;20024;-69
2024/01/29 01:12:08;;;;;;;;;;;;;;;2.76;70.09;102665.88;4191477;28;19939;-69
2024/01/29 01:14:10;;;;;;;;;;;;;;;2.76;70.39;102663.22;4192844;28;20019;-69
2024/01/29 01:16:12;;;;;;;;;;;;;;;2.75;70.22;102650.81;4193591;28;20028;-69
2024/01/29 01:18:14;;;;;;;;;;;;;;;2.75;70.21;102658.84;4195535;28;20027;-69
2024/01/29 01:20:16;;;;;;;;;;;;;;;2.75;70.20;102659.69;4195277;28;20023;-69
2024/01/29 01:22:18;;;;;;;;;;;;;;;2.73;70.43;102658.03;4193381;28;20031;-70
2024/01/29 01:24:20;;;;;;;;;;;;;;;2.71;70.18;102660.78;4194660;28;20335;-69
2024/01/29 01:26:22;;;;;;;;;;;;;;;2.68;70.50;102664.47;4196187;28;20438;-69
2024/01/29 01:28:24;;;;;;;;;;;;;;;2.64;70.33;102652.22;4192858;28;20043;-68
2024/01/29 01:30:27;;;;;;;;;;;;;;;2.65;70.48;102659.31;4195670;28;20410;-69
2024/01/29 01:32:29;;;;;;;;;;;;;;;2.65;70.06;102661.09;4193805;28;20019;-69
2024/01/29 01:34:31;;;;;;;;;;;;;;;2.63;70.31;102655.84;4194959;28;20027;-69
2024/01/29 01:36:33;;;;;;;;;;;;;;;2.62;70.33;102654.13;4194150;28;20048;-69
2024/01/29 01:38:35;;;;;;;;;;;;;;;2.62;70.27;102662.13;4196387;28;20457;-69
2024/01/29 01:40:37;;;;;;;;;;;;;;;2.62;70.40;102650.59;4196165;28;20031;-69
2024/01/29 01:42:40;;;;;;;;;;;;;;;2.60;70.64;102658.69;4192227;28;20378;-69
2024/01/29 01:44:42;;;;;;;;;;;;;;;2.59;70.58;102656.94;4193868;28;19963;-69
2024/01/29 01:46:45;;;;;;;;;;;;;;;2.59;70.31;102661.44;4196701;28;20007;-69
2024/01/29 01:48:47;;;;;;;;;;;;;;;2.57;70.54;102655.28;4196349;28;20019;-69
2024/01/29 01:50:49;;;;;;;;;;;;;;;2.56;70.81;102661.59;4194448;28;20039;-69
2024/01/29 01:52:51;;;;;;;;;;;;;;;2.56;70.97;102653.56;4194707;28;20489;-69
2024/01/29 01:54:53;;;;;;;;;;;;;;;2.55;70.96;102651.84;4195848;28;20563;-69
2024/01/29 01:56:54;;;;;;;;;;;;;;;2.55;71.00;102654.50;4195923;28;20011;-69
2024/01/29 01:58:56;;;;;;;;;;;;;;;2.50;70.66;102650.25;4193389;28;20376;-69
2024/01/29 02:00:58;;;;;;;;;;;;;;;2.49;70.79;102650.34;4190566;28;20369;-69
2024/01/29 02:03:02;;;;;;;;;;;;;;;2.47;71.07;102647.75;4193378;28;20364;-69
2024/01/29 02:05:04;;;;;;;;;;;;;;;2.46;71.08;102654.03;4195093;28;20367;-69
2024/01/29 02:07:06;;;;;;;;;;;;;;;2.47;71.16;102644.22;4196685;28;20024;-69
2024/01/29 02:09:07;;;;;;;;;;;;;;;2.48;71.19;102646.81;4177285;28;20036;-69
2024/01/29 02:11:09;;;;;;;;;;;;;;;2.49;71.18;102640.56;4192023;28;19924;-68
2024/01/29 02:13:11;;;;;;;;;;;;;;;2.48;71.18;102636.16;4193527;28;19925;-69
2024/01/29 02:15:13;;;;;;;;;;;;;;;2.47;71.22;102637.06;4192730;28;20374;-69
2024/01/29 02:17:15;;;;;;;;;;;;;;;2.44;71.20;102631.91;4193410;28;20397;-69
2024/01/29 02:19:18;;;;;;;;;;;;;;;2.43;71.33;102637.31;4195199;28;20027;-69
2024/01/29 02:21:20;;;;;;;;;;;;;;;2.45;71.31;102630.13;4193997;28;20015;-69
2024/01/29 02:23:23;;;;;;;;;;;;;;;2.43;71.35;102622.19;4192568;28;20016;-69
2024/01/29 02:25:25;;;;;;;;;;;;;;;2.44;71.70;102620.38;4196456;28;20035;-69
2024/01/29 02:27:27;;;;;;;;;;;;;;;2.42;71.42;102611.59;4193197;28;20008;-69
2024/01/29 02:29:29;;;;;;;;;;;;;;;2.41;71.53;102610.72;4195925;28;20007;-69
2024/01/29 02:31:31;;;;;;;;;;;;;;;2.42;71.44;102608.94;4196602;28;20007;-69
2024/01/29 02:33:33;;;;;;;;;;;;;;;2.43;71.63;102597.31;4199348;28;19931;-69
2024/01/29 02:35:35;;;;;;;;;;;;;;;2.43;71.99;102610.63;4180697;28;20003;-69
2024/01/29 02:37:37;;;;;;;;;;;;;;;2.45;71.71;102603.44;4195786;28;20019;-69
2024/01/29 02:39:41;;;;;;;;;;;;;;;2.45;72.02;102603.44;4197835;28;20027;-69
2024/01/29 02:41:43;;;;;;;;;;;;;;;2.43;72.10;102606.19;4195109;28;20019;-69
2024/01/29 02:43:45;;;;;;;;;;;;;;;2.44;71.61;102605.22;4196701;28;20054;-69
2024/01/29 02:45:47;;;;;;;;;;;;;;;2.42;71.95;102603.59;4198275;28;20372;-69
2024/01/29 02:47:49;;;;;;;;;;;;;;;2.42;71.94;102598.25;4198323;28;20028;-69
2024/01/29 02:49:51;;;;;;;;;;;;;;;2.43;72.23;102602.63;4192710;28;20881;-69
2024/01/29 02:51:52;;;;;;;;;;;;;;;2.41;71.98;102599.19;4194508;28;20019;-69
2024/01/29 02:53:54;;;;;;;;;;;;;;;2.39;72.27;102596.59;4193333;28;20745;-69
2024/01/29 02:55:57;;;;;;;;;;;;;;;2.38;72.05;102605.53;4195012;28;20018;-69
2024/01/29 02:57:59;;;;;;;;;;;;;;;2.40;72.38;102601.00;4195808;28;20350;-69
2024/01/29 03:00:01;;;;;;;;;;;;;;;2.41;72.25;102602.72;4195653;28;20110;-69
2024/01/29 03:02:04;;;;;;;;;;;;;;;2.41;72.07;102601.84;4196312;28;20039;-69
2024/01/29 03:04:06;;;;;;;;;;;;;;;2.41;72.31;102604.53;4198689;28;20896;-69
2024/01/29 03:06:08;;;;;;;;;;;;;;;2.42;72.03;102599.13;4196399;28;20024;-69
2024/01/29 03:08:09;;;;;;;;;;;;;;;2.43;72.21;102590.19;4194398;28;20019;-69
2024/01/29 03:10:11;;;;;;;;;;;;;;;2.44;72.06;102596.38;4179202;28;20422;-69
2024/01/29 03:12:14;;;;;;;;;;;;;;;2.43;72.25;102589.28;4196428;28;20012;-69
2024/01/29 03:14:16;;;;;;;;;;;;;;;2.43;72.22;102586.63;4193300;28;20027;-69
2024/01/29 03:16:18;;;;;;;;;;;;;;;2.43;72.11;102587.50;4197621;28;20083;-69
2024/01/29 03:18:19;;;;;;;;;;;;;;;2.42;72.30;102591.13;4198158;28;20023;-69
2024/01/29 03:20:24;;;;;;;;;;;;;;;2.42;72.20;102587.59;4192540;28;20043;-69
2024/01/29 03:22:26;;;;;;;;;;;;;;;2.39;72.38;102577.94;4196243;28;20429;-69
2024/01/29 03:24:28;;;;;;;;;;;;;;;2.39;72.07;102580.59;4192649;28;20337;-69
2024/01/29 03:26:30;;;;;;;;;;;;;;;2.38;72.36;102576.19;4196255;28;20023;-69
2024/01/29 03:28:33;;;;;;;;;;;;;;;2.39;72.23;102566.41;4194466;28;20022;-69
2024/01/29 03:30:35;;;;;;;;;;;;;;;2.37;71.97;102574.50;4195313;28;20023;-68
2024/01/29 03:32:37;;;;;;;;;;;;;;;2.34;72.09;102572.84;4193911;28;20394;-68
2024/01/29 03:34:40;;;;;;;;;;;;;;;2.34;72.11;102577.31;4192308;28;19936;-69
2024/01/29 03:36:43;;;;;;;;;;;;;;;2.33;72.25;102579.09;4194613;28;20045;-68
2024/01/29 03:38:45;;;;;;;;;;;;;;;2.32;72.26;102584.50;4196506;28;20000;-68
2024/01/29 03:40:46;;;;;;;;;;;;;;;2.28;72.37;102586.47;4195815;28;20661;-68
2024/01/29 03:42:48;;;;;;;;;;;;;;;2.29;72.61;102585.56;4195545;28;20003;-68
2024/01/29 03:44:51;;;;;;;;;;;;;;;2.31;72.45;102577.47;4195081;28;20027;-68
2024/01/29 03:46:53;;;;;;;;;;;;;;;2.30;72.76;102581.94;4194355;28;20015;-68
2024/01/29 03:48:55;;;;;;;;;;;;;;;2.30;72.55;102581.06;4196862;28;20015;-68
2024/01/29 03:50:57;;;;;;;;;;;;;;;2.30;72.79;102575.75;4197831;28;20477;-68
2024/01/29 03:53:03;;;;;;;;;;;;;;;2.29;72.49;102566.88;4195377;28;20027;-68
2024/01/29 03:55:06;;;;;;;;;;;;;;;2.29;72.74;102568.69;4194093;28;19924;-68
2024/01/29 03:57:07;;;;;;;;;;;;;;;2.28;72.69;102566.97;4196474;28;20038;-68
2024/01/29 03:59:11;;;;;;;;;;;;;;;2.26;72.82;102576.84;4198244;28;19964;-68
2024/01/29 04:01:14;;;;;;;;;;;;;;;2.27;72.49;102579.44;4197575;28;20409;-68
2024/01/29 04:03:16;;;;;;;;;;;;;;;2.25;72.66;102567.97;4193043;28;20026;-68
2024/01/29 04:05:18;;;;;;;;;;;;;;;2.27;72.70;102567.88;4195642;28;19963;-69
2024/01/29 04:07:20;;;;;;;;;;;;;;;2.29;72.97;102574.03;4197028;28;19964;-68
2024/01/29 04:09:22;;;;;;;;;;;;;;;2.29;72.64;102571.38;4197932;28;20011;-68
2024/01/29 04:11:24;;;;;;;;;;;;;;;2.24;72.69;102568.94;4195135;28;20023;-68
2024/01/29 04:13:26;;;;;;;;;;;;;;;2.20;72.72;102566.50;4194322;28;20024;-68
2024/01/29 04:15:29;;;;;;;;;;;;;;;2.21;72.91;102573.53;4197046;28;19963;-68
2024/01/29 04:17:32;;;;;;;;;;;;;;;2.21;72.85;102573.53;4197494;28;19996;-68
2024/01/29 04:19:34;;;;;;;;;;;;;;;2.24;73.05;102574.25;4191612;28;20019;-68
2024/01/29 04:21:35;;;;;;;;;;;;;;;2.21;73.16;102566.41;4196682;28;20011;-68
2024/01/29 04:23:37;;;;;;;;;;;;;;;2.19;72.76;102559.44;4194340;28;19977;-68
2024/01/29 04:25:39;;;;;;;;;;;;;;;2.22;73.07;102561.94;4193251;28;20015;-68
2024/01/29 04:27:41;;;;;;;;;;;;;;;2.22;73.04;102557.47;4197312;28;20030;-68
2024/01/29 04:29:43;;;;;;;;;;;;;;;2.25;73.13;102559.13;4193404;28;20446;-68
2024/01/29 04:31:45;;;;;;;;;;;;;;;2.24;73.18;102549.38;4193468;28;20442;-68
2024/01/29 04:33:48;;;;;;;;;;;;;;;2.24;73.31;102557.38;4194910;28;20008;-68
2024/01/29 04:35:50;;;;;;;;;;;;;;;2.23;72.99;102547.69;4193908;28;19939;-69
2024/01/29 04:37:52;;;;;;;;;;;;;;;2.21;72.96;102555.75;4194310;28;20019;-68
2024/01/29 04:39:54;;;;;;;;;;;;;;;2.19;72.96;102554.94;4195791;28;20011;-68
2024/01/29 04:41:56;;;;;;;;;;;;;;;2.20;73.33;102551.34;4193464;28;20442;-68
2024/01/29 04:43:58;;;;;;;;;;;;;;;2.21;73.15;102552.19;4196065;28;19955;-68
2024/01/29 04:45:59;;;;;;;;;;;;;;;2.21;73.29;102552.19;4194369;28;20467;-68
2024/01/29 04:48:02;;;;;;;;;;;;;;;2.21;73.15;102546.88;4194251;28;19964;-68
2024/01/29 04:50:06;;;;;;;;;;;;;;;2.22;73.45;102537.94;4193277;28;20011;-68
2024/01/29 04:52:08;;;;;;;;;;;;;;;2.22;73.28;102544.13;4195189;28;20032;-68
2024/01/29 04:54:10;;;;;;;;;;;;;;;2.21;73.30;102544.22;4195616;28;20039;-68
2024/01/29 04:56:13;;;;;;;;;;;;;;;2.24;73.38;102544.06;4195934;28;19967;-68
2024/01/29 04:58:14;;;;;;;;;;;;;;;2.24;73.38;102544.94;4194073;28;20008;-68
2024/01/29 05:00:16;;;;;;;;;;;;;;;2.25;73.38;102545.78;4193892;28;20022;-68
2024/01/29 05:02:18;;;;;;;;;;;;;;;2.25;73.21;102546.63;4194143;28;20091;-69
2024/01/29 05:04:20;;;;;;;;;;;;;;;2.25;73.21;102549.31;4196258;28;20043;-68
2024/01/29 05:06:24;;;;;;;;;;;;;;;2.23;73.17;102545.88;4193902;28;20381;-68
2024/01/29 05:08:24;;;;;;;;;;;;;;;2.23;73.31;102542.34;4194855;28;20375;-68
2024/01/29 05:10:26;;;;;;;;;;;;;;;2.22;73.15;102535.28;4195114;28;20023;-68
2024/01/29 05:12:29;;;;;;;;;;;;;;;2.21;73.06;102538.88;4194064;28;20007;-68
2024/01/29 05:14:31;;;;;;;;;;;;;;;2.21;73.32;102539.75;4192705;28;19978;-68
2024/01/29 05:16:35;;;;;;;;;;;;;;;2.18;73.27;102545.25;4177936;28;20469;-68
2024/01/29 05:18:37;;;;;;;;;;;;;;;2.20;73.42;102545.16;4194060;28;20031;-69
2024/01/29 05:20:39;;;;;;;;;;;;;;;2.19;73.24;102538.09;4177601;28;20024;-69
2024/01/29 05:22:43;;;;;;;;;;;;;;;2.17;73.38;102546.19;4195976;28;20024;-69
2024/01/29 05:24:45;;;;;;;;;;;;;;;2.19;73.53;102532.78;4194174;28;20024;-69
2024/01/29 05:26:47;;;;;;;;;;;;;;;2.17;73.34;102533.69;4195564;28;19963;-68
2024/01/29 05:28:49;;;;;;;;;;;;;;;2.17;73.42;102531.03;4195885;28;20095;-68
2024/01/29 05:30:52;;;;;;;;;;;;;;;2.18;73.33;102539.91;4193354;28;20039;-69
2024/01/29 05:32:54;;;;;;;;;;;;;;;2.15;73.34;102545.41;4193737;28;20024;-68
2024/01/29 05:34:56;;;;;;;;;;;;;;;2.16;73.25;102536.44;4190373;28;20473;-69
2024/01/29 05:36:58;;;;;;;;;;;;;;;2.16;73.26;102529.34;4193981;28;19925;-68
2024/01/29 05:39:01;;;;;;;;;;;;;;;2.17;73.38;102531.03;4193992;28;20015;-69
2024/01/29 05:41:02;;;;;;;;;;;;;;;2.16;73.46;102529.34;4194559;28;20027;-68
2024/01/29 05:43:04;;;;;;;;;;;;;;;2.17;73.53;102531.03;4191977;28;20378;-68
2024/01/29 05:45:06;;;;;;;;;;;;;;;2.19;73.57;102532.78;4195929;28;20412;-68
2024/01/29 05:47:08;;;;;;;;;;;;;;;2.20;73.71;102539.84;4193928;28;19963;-69
2024/01/29 05:49:10;;;;;;;;;;;;;;;2.19;73.68;102546.09;4176148;28;20011;-68
2024/01/29 05:51:10;;;;;;;;;;;;;;;2.16;73.34;102544.44;4177403;28;19968;-68
2024/01/29 05:53:12;;;;;;;;;;;;;;;2.14;73.30;102541.00;4194694;28;19994;-68
2024/01/29 05:55:16;;;;;;;;;;;;;;;2.15;73.55;102540.06;4175117;28;20027;-68
2024/01/29 05:57:17;;;;;;;;;;;;;;;2.15;73.53;102535.59;4192520;28;20477;-69
2024/01/29 05:59:19;;;;;;;;;;;;;;;2.13;73.35;102537.47;4177237;28;19960;-68
2024/01/29 06:01:21;;;;;;;;;;;;;;;2.13;73.36;102533.94;4195588;28;20019;-68
2024/01/29 06:03:23;;;;;;;;;;;;;;;2.12;73.51;102525.09;4197461;28;20022;-69
2024/01/29 06:05:25;;;;;;;;;;;;;;;2.11;73.21;102528.69;4196421;28;20019;-69
2024/01/29 06:07:27;;;;;;;;;;;;;;;2.12;73.34;102526.91;4197807;28;20023;-69
2024/01/29 06:09:29;;;;;;;;;;;;;;;2.13;73.42;102536.59;4197289;28;20454;-69
2024/01/29 06:11:32;;;;;;;;;;;;;;;2.13;73.31;102537.47;4175771;28;20430;-69
2024/01/29 06:13:34;;;;;;;;;;;;;;;2.13;73.26;102526.81;4197133;28;20028;-69
2024/01/29 06:15:36;;;;;;;;;;;;;;;2.14;73.35;102533.84;4195551;28;20247;-69
2024/01/29 06:17:40;;;;;;;;;;;;;;;2.15;73.34;102535.59;4199348;28;19924;-69
2024/01/29 06:19:42;;;;;;;;;;;;;;;2.17;73.71;102536.38;4195563;28;20019;-69
2024/01/29 06:21:44;;;;;;;;;;;;;;;2.18;73.49;102531.91;4195005;28;20384;-69
2024/01/29 06:23:46;;;;;;;;;;;;;;;2.19;73.43;102532.78;4195246;28;20031;-69
2024/01/29 06:25:48;;;;;;;;;;;;;;;2.21;73.14;102525.53;4196478;28;20368;-69
2024/01/29 06:27:51;;;;;;;;;;;;;;;2.20;73.23;102526.50;4195338;28;19995;-69
2024/01/29 06:29:53;;;;;;;;;;;;;;;2.21;73.05;102525.53;4195644;28;20800;-69
2024/01/29 06:31:55;;;;;;;;;;;;;;;2.22;72.99;102533.47;4194498;28;20001;-69
2024/01/29 06:33:57;;;;;;;;;;;;;;;2.23;72.96;102529.00;4197812;28;19968;-69
2024/01/29 06:35:59;;;;;;;;;;;;;;;2.23;72.98;102529.88;4198301;28;20015;-69
2024/01/29 06:38:02;;;;;;;;;;;;;;;2.23;72.66;102527.19;4194298;28;19928;-69
2024/01/29 06:40:05;;;;;;;;;;;;;;;2.22;72.65;102530.78;4194431;28;20023;-69
2024/01/29 06:42:07;;;;;;;;;;;;;;;2.21;72.50;102529.09;4193399;28;19996;-69
2024/01/29 06:44:10;;;;;;;;;;;;;;;2.20;72.41;102531.84;4191970;28;20012;-69
2024/01/29 06:46:12;;;;;;;;;;;;;;;2.22;72.51;102529.94;4194996;28;20024;-69
2024/01/29 06:48:14;;;;;;;;;;;;;;;2.21;72.64;102529.09;4198779;28;20069;-69
2024/01/29 06:50:16;;;;;;;;;;;;;;;2.21;72.71;102531.75;4193530;28;20463;-69
2024/01/29 06:52:18;;;;;;;;;;;;;;;2.20;72.40;102535.34;4192615;28;20017;-69
2024/01/29 06:54:20;;;;;;;;;;;;;;;2.21;72.58;102530.88;4195404;28;20066;-69
2024/01/29 06:56:22;;;;;;;;;;;;;;;2.23;72.74;102535.19;4198234;28;20384;-69
2024/01/29 06:58:24;;;;;;;;;;;;;;;2.23;72.56;102534.34;4198780;28;19928;-69
2024/01/29 07:00:27;;;;;;;;;;;;;;;2.22;72.17;102532.63;4197235;28;20019;-69
2024/01/29 07:02:28;;;;;;;;;;;;;;;2.21;71.99;102545.09;4193818;28;20011;-69
2024/01/29 07:04:30;;;;;;;;;;;;;;;2.23;72.02;102537.00;4196226;28;19931;-69
2024/01/29 07:06:32;;;;;;;;;;;;;;;2.22;71.92;102537.94;4194397;28;20019;-70
2024/01/29 07:08:34;;;;;;;;;;;;;;;2.23;72.21;102540.53;4193291;28;20015;-70
2024/01/29 07:10:36;;;;;;;;;;;;;;;2.22;71.76;102536.13;4193444;28;20023;-69
2024/01/29 07:12:38;;;;;;;;;;;;;;;2.21;71.72;102537.09;4194088;28;20020;-70
2024/01/29 07:14:40;;;;;;;;;;;;;;;2.22;71.67;102524.63;4197160;28;19981;-70
2024/01/29 07:16:43;;;;;;;;;;;;;;;2.22;71.65;102532.63;4192064;28;20182;-70
2024/01/29 07:18:45;;;;;;;;;;;;;;;2.20;71.89;102529.16;4196268;28;19924;-70
2024/01/29 07:20:46;;;;;;;;;;;;;;;2.20;71.73;102531.84;4196792;28;20366;-69
2024/01/29 07:22:48;;;;;;;;;;;;;;;2.21;71.68;102522.88;4196981;28;20011;-69
2024/01/29 07:24:50;;;;;;;;;;;;;;;2.22;71.70;102521.94;4192350;28;20008;-69
2024/01/29 07:26:51;;;;;;;;;;;;;;;2.21;71.55;102528.22;4194083;28;20011;-69
2024/01/29 07:28:53;;;;;;;;;;;;;;;2.23;71.39;102529.00;4195507;28;20011;-69
2024/01/29 07:30:55;;;;;;;;;;;;;;;2.24;71.52;102525.38;4192164;28;20438;-69
2024/01/29 07:32:58;;;;;;;;;;;;;;;2.22;71.41;102528.13;4192420;28;20015;-69
2024/01/29 07:35:01;;;;;;;;;;;;;;;2.24;70.99;102526.28;4186968;28;20021;-69
2024/01/29 07:37:03;;;;;;;;;;;;;;;2.24;71.18;102526.28;4186368;28;20226;-69
2024/01/29 07:39:05;;;;;;;;;;;;;;;2.26;71.31;102536.84;4192597;28;19994;-69
2024/01/29 07:41:07;;;;;;;;;;;;;;;2.25;71.18;102522.66;4189498;28;20024;-69
2024/01/29 07:43:09;;;;;;;;;;;;;;;2.26;71.15;102532.38;4192505;28;20031;-70
2024/01/29 07:45:11;;;;;;;;;;;;;;;2.27;71.07;102543.91;4197371;28;20011;-69
2024/01/29 07:47:12;;;;;;;;;;;;;;;2.29;71.09;102521.56;4194326;28;20457;-69
2024/01/29 07:49:15;;;;;;;;;;;;;;;2.31;71.09;102525.00;4190907;28;20039;-69
2024/01/29 07:51:17;;;;;;;;;;;;;;;2.33;70.92;102528.44;4195044;28;20015;-69
2024/01/29 07:53:19;;;;;;;;;;;;;;;2.34;71.02;102530.16;4195671;28;20501;-69
2024/01/29 07:55:23;;;;;;;;;;;;;;;2.37;71.03;102528.28;4193895;28;19960;-69
2024/01/29 07:57:25;;;;;;;;;;;;;;;2.37;71.08;102523.81;4191114;28;20433;-69
2024/01/29 07:59:27;;;;;;;;;;;;;;;2.38;71.02;102522.88;4195586;28;20019;-70
2024/01/29 08:01:29;;;;;;;;;;;;;;;2.40;70.99;102520.13;4184886;28;20454;-69
2024/01/29 08:03:31;;;;;;;;;;;;;;;2.42;71.04;102524.44;4196591;28;20011;-69
2024/01/29 08:05:35;;;;;;;;;;;;;;;2.44;71.12;102514.53;4196776;28;19956;-69
2024/01/29 08:07:37;;;;;;;;;;;;;;;2.47;71.28;102510.88;4194825;28;20020;-69
2024/01/29 08:09:38;;;;;;;;;;;;;;;2.49;71.04;102516.97;4195260;28;20078;-68
2024/01/29 08:11:40;;;;;;;;;;;;;;;2.51;70.80;102520.44;4177640;28;19968;-69
2024/01/29 08:13:42;;;;;;;;;;;;;;;2.53;70.73;102514.06;4194891;28;20015;-68
2024/01/29 08:15:44;;;;;;;;;;;;;;;2.57;70.65;102511.22;4195678;28;20020;-68
2024/01/29 08:17:46;;;;;;;;;;;;;;;2.60;70.86;102511.97;4178309;28;20028;-68
2024/01/29 08:19:48;;;;;;;;;;;;;;;2.65;70.80;102512.56;4195632;28;19928;-69
2024/01/29 08:21:51;;;;;;;;;;;;;;;2.69;70.30;102505.25;4194584;28;20366;-68
2024/01/29 08:23:53;;;;;;;;;;;;;;;2.74;70.44;102515.69;4194329;28;20472;-68
2024/01/29 08:25:55;;;;;;;;;;;;;;;2.77;70.26;102512.84;4195510;28;20018;-68
2024/01/29 08:27:57;;;;;;;;;;;;;;;2.81;70.00;102503.75;4195109;28;20011;-68
2024/01/29 08:29:59;;;;;;;;;;;;;;;2.85;70.19;102503.50;4176640;28;20408;-68
2024/01/29 08:32:00;;;;;;;;;;;;;;;2.91;70.14;102510.28;4194928;28;20051;-68
2024/01/29 08:34:04;;;;;;;;;;;;;;;2.96;70.15;102508.25;4195648;28;20011;-68
2024/01/29 08:36:05;;;;;;;;;;;;;;;3.01;70.07;102508.84;4195711;28;20016;-69
2024/01/29 08:38:09;;;;;;;;;;;;;;;3.06;69.47;102506.78;4178135;28;20043;-69
2024/01/29 08:40:12;;;;;;;;;;;;;;;3.14;69.90;102521.53;4194930;28;19924;-69
2024/01/29 08:42:15;;;;;;;;;;;;;;;3.21;69.77;102509.53;4194444;28;20031;-68
2024/01/29 08:44:17;;;;;;;;;;;;;;;3.28;69.92;102494.91;4195863;28;20688;-68
2024/01/29 08:46:18;;;;;;;;;;;;;;;3.34;69.74;102502.56;4170247;28;20076;-68
2024/01/29 08:48:20;;;;;;;;;;;;;;;3.41;69.82;102503.09;4194444;28;20027;-68
2024/01/29 08:50:21;;;;;;;;;;;;;;;3.49;69.85;102508.84;4193062;28;20023;-68
2024/01/29 08:52:23;;;;;;;;;;;;;;;3.56;69.57;102507.56;4195320;28;20456;-68
2024/01/29 08:54:27;;;;;;;;;;;;;;;3.65;69.54;102498.13;4194834;28;20692;-68
2024/01/29 08:56:30;;;;;;;;;;;;;;;3.74;69.82;102510.13;4195501;28;19967;-68
2024/01/29 08:58:32;;;;;;;;;;;;;;;3.82;69.57;102510.53;4195939;28;20011;-68
2024/01/29 09:00:35;;;;;;;;;;;;;;;3.89;69.42;102505.69;4195452;28;19929;-68
2024/01/29 09:02:37;;;;;;;;;;;;;;;4.00;69.38;102499.69;4194545;28;20015;-69
2024/01/29 09:04:40;;;;;;;;;;;;;;;4.10;69.09;102508.91;4195157;28;20446;-68
2024/01/29 09:06:42;;;;;;;;;;;;;;;4.18;69.16;102503.94;4194770;28;20011;-69
2024/01/29 09:08:44;;;;;;;;;;;;;;;4.27;69.26;102514.09;4194394;28;20372;-68
2024/01/29 09:10:47;;;;;;;;;;;;;;;4.34;68.98;102506.56;4193070;28;20453;-69
2024/01/29 09:12:49;;;;;;;;;;;;;;;4.41;69.18;102496.38;4194585;28;20043;-68
2024/01/29 09:14:50;;;;;;;;;;;;;;;4.49;69.08;102508.31;4190843;28;20398;-68
2024/01/29 09:16:52;;;;;;;;;;;;;;;4.57;68.75;102499.81;4194432;28;19959;-68
2024/01/29 09:18:54;;;;;;;;;;;;;;;4.64;68.59;102498.47;4194285;28;20032;-68
2024/01/29 09:20:56;;;;;;;;;;;;;;;4.71;68.67;102496.28;4177693;28;20021;-68
2024/01/29 09:22:58;;;;;;;;;;;;;;;4.72;68.38;102491.78;4195317;28;20047;-68
2024/01/29 09:25:00;;;;;;;;;;;;;;;4.85;68.00;102512.34;4193104;28;20011;-68
2024/01/29 09:27:02;;;;;;;;;;;;;;;4.94;67.91;102507.38;4194636;28;20035;-68
2024/01/29 09:29:04;;;;;;;;;;;;;;;5.02;67.25;102521.13;4195107;28;20031;-69
2024/01/29 09:31:06;;;;;;;;;;;;;;;5.09;66.99;102508.22;4193948;28;20371;-68
2024/01/29 09:33:08;;;;;;;;;;;;;;;5.13;66.89;102510.59;4194705;28;20016;-69
2024/01/29 09:35:10;;;;;;;;;;;;;;;5.18;66.58;102495.06;4174710;28;20605;-68
2024/01/29 09:37:11;;;;;;;;;;;;;;;5.24;66.28;102493.84;4194464;28;20019;-69
2024/01/29 09:39:13;;;;;;;;;;;;;;;5.29;65.92;102512.28;4195426;28;20035;-69
2024/01/29 09:41:14;;;;;;;;;;;;;;;5.33;65.97;102495.91;4176780;28;19964;-68
2024/01/29 09:43:18;;;;;;;;;;;;;;;5.38;65.49;102499.16;4192757;28;20039;-68
2024/01/29 09:45:21;;;;;;;;;;;;;;;5.43;65.69;102495.31;4194447;28;20019;-68
2024/01/29 09:47:23;;;;;;;;;;;;;;;5.45;65.61;102488.88;4195069;28;20007;-68
2024/01/29 09:49:25;;;;;;;;;;;;;;;5.50;65.24;102488.59;4194924;28;20014;-69
2024/01/29 09:51:27;;;;;;;;;;;;;;;5.53;65.39;102485.69;4194731;28;20371;-69
2024/01/29 09:53:29;;;;;;;;;;;;;;;5.58;65.04;102497.00;4194694;28;20011;-68
2024/01/29 09:55:31;;;;;;;;;;;;;;;5.63;64.82;102496.66;4192694;28;20023;-68
2024/01/29 09:57:32;;;;;;;;;;;;;;;5.65;64.67;102489.41;4194936;28;20016;-69
2024/01/29 09:59:35;;;;;;;;;;;;;;;5.70;64.33;102498.84;4194887;28;19928;-68
2024/01/29 10:01:37;;;;;;;;;;;;;;;5.73;64.52;102500.47;4194238;28;19932;-68
2024/01/29 10:03:39;;;;;;;;;;;;;;;5.75;64.27;102498.53;4192563;28;20373;-69
2024/01/29 10:05:41;;;;;;;;;;;;;;;5.77;64.57;102508.22;4194262;28;20032;-69
2024/01/29 10:07:42;;;;;;;;;;;;;;;5.81;64.27;102508.84;4194247;28;20012;-69
2024/01/29 10:09:45;;;;;;;;;;;;;;;5.83;64.03;102503.38;4193565;28;19928;-69
2024/01/29 10:11:47;;;;;;;;;;;;;;;5.86;63.86;102509.44;4193098;28;20364;-69
2024/01/29 10:13:49;;;;;;;;;;;;;;;5.88;64.10;102509.31;4194353;28;20019;-68
2024/01/29 10:15:53;;;;;;;;;;;;;;;5.89;64.15;102516.38;4195113;28;20461;-68
2024/01/29 10:17:54;;;;;;;;;;;;;;;5.92;63.58;102514.38;4193985;28;20023;-69
2024/01/29 10:19:55;;;;;;;;;;;;;;;5.94;63.90;102512.44;4193860;28;19974;-68
2024/01/29 10:21:57;;;;;;;;;;;;;;;5.98;63.57;102513.13;4193276;28;20008;-69
2024/01/29 10:23:59;;;;;;;;;;;;;;;6.00;63.63;102513.88;4194406;28;20012;-69
2024/01/29 10:26:01;;;;;;;;;;;;;;;6.02;63.83;102506.59;4194684;28;20041;-69
2024/01/29 10:28:06;;;;;;;;;;;;;;;6.04;63.56;102514.53;4194976;28;20011;-68
2024/01/29 10:30:09;;;;;;;;;;;;;;;6.07;63.86;102509.81;4194756;28;20012;-69
2024/01/29 10:32:12;;;;;;;;;;;;;;;6.09;63.70;102507.88;4177152;28;19967;-69
2024/01/29 10:34:14;;;;;;;;;;;;;;;6.12;63.78;102493.41;4194183;28;20362;-69
2024/01/29 10:36:16;;;;;;;;;;;;;;;6.15;63.77;102497.72;4194660;28;20016;-69